Startpagina
METAR-TAF:

METAR-TAF

Vliegvelden :

Aéroport Ajaccio Napoléon Bonaparte

Ajaccio, Frankrijk

breedte: 41-55N, lengte: 008-48E, hoogte: 6 m

Actueel weer

Dit bericht is 34 minuten geleden gemaakt, om 13:30 UTC
Wind 10 kt uit het zuidzuidwesten
Temperatuur 19°C
Vochtigheid 52%
Druk 1022 hPa
Zicht 10 km of meer
geen wolken onder 1500 m en geen cumulonimbus

METAR: LFKJ 101330Z AUTO 21010KT CAVOK 19/09 Q1022 NOSIG

Tijdstip: 16:04 (14:04 UTC)

Verwachting

Dit bericht is 6 uur en het 4 minuten geleden gemaakt, om 08:00 UTC
Verwachting geldig van 10 om 09 UTC tot 11 om 09 UTC
Wind 6 kt uit het noordoosten
Zicht 10 km of meer
geen wolken onder 1500 m en geen cumulonimbus
Wijzigt naar
van 10 om 10 UTC tot 10 om 11 UTC
Wind 10 kt uit het zuidwesten
Wijzigt naar
van 10 om 19 UTC tot 10 om 20 UTC
Wind 5 kt uit het noordoosten

TAF: LFKJ 100800Z 1009/1109 05006KT CAVOK BECMG 1010/1011 23010KT BECMG 1019/1020 04005KT

Waarnemingen en weersverwachtingen van meer dan 4000 vliegvelden (METAR en TAF).

De beschikbare stations zijn de gele en rode punten op de kaart.

Ga met uw muis naar het station om de naam te zien.

Klik dan om waarnemingen en weersverwachtingen te zien.

kaart wijzigen: klik op de groene knoppen met een zwart kruis om in te zoomen, op de groene knop met een streepje om uit te zoomen of op de groene pijlen voor aangrenzende kaarten.


METAR-TAF: